Honolulu, HI

4:53 PM HST on February 08, 2016 (GMT -1000)
Nuuanu | | Change Station
CLOSE
Current Station
Personal Weather Station
Location: Honolulu, HI
Elevation: 374 ft
Nearby Weather Stations
Active Advisory: High Surf Advisory Active Notice: Record Report

Elev 374 ft 21.33 °N, 157.84 °W | Updated 5 minutes ago

Partly Cloudy
Partly Cloudy
71.6 °F
Feels Like 76 °F
N
8.9
Wind Variable Wind from NE

Today
High -- | Low -- °F
--% Chance of Precip.
Yesterday
High -- | Low -- °F
Precip. -- in
Pressure 29.94 in
Visibility 10.0 miles
Clouds Few 3500 ft
Heat Index 76 °F
Dew Point 56 °F
Humidity 57%
Rainfall 0.00 in
Snow Depth Not available.
7:05 AM 6:25 PM
New Moon, 0% visible
METAR PHNL 090153Z 22010KT 10SM FEW035 24/13 A2994 RMK AO2 SLP138 T02440128
Pressure 29.94 in
Visibility 10.0 miles
Clouds Few 3500 ft
Heat Index 76 °F
Dew Point 56 °F
Humidity 57%
Rainfall 0.00 in
Snow Depth Not available.
7:05 AM 6:25 PM
New Moon, 0% visible
METAR PHNL 090153Z 22010KT 10SM FEW035 24/13 A2994 RMK AO2 SLP138 T02440128

10-Day Weather Forecast

Almanac

Astronomy

Feb. 08, 2016 Rise Set
Actual Time
Civil Twilight
Nautical Twilight
Astronomical Twilight
Moon
Length of Visible Light
Length of Day
Tomorrow will be .
, % of the Moon is Illuminated

Today's Extremes

State Highs State Lows

Community

WunderPhotos

Upload Photos

1,891,527 photos uploaded!

WunderBlog® & News

Nearby

Air Quality

  Air Quality AQ Index Pollutant
Not available.

Snow Depth

Station Depth Elevation

Earthquake Activity

City Distance Mag. Time & Date
Minimum magnitude displayed is 2.5.

Coastal Water Temperatures

Place Temperature

Stations

Nearby Weather Stations

Station Location Temp. Windchill Dew Point Humidity Wind Precip. Elev Updated Type
                   

Watches & Warnings

High Surf Advisory
Issued: 3:53 PM HST Feb. 8, 2016 – National Weather Service

... High surf advisory remains in effect until 6 am HST Tuesday...

* surf... along north facing shores of Niihau and Kauai... 14 to 18
ft... and along north facing shores of Oahu Molokai and Maui... 12
to 16 feet.

* Timing... through 6 am HST Tuesday.

* Impacts... moderate... expect strong breaking waves... shore
break... and strong longshore and rip currents making swimming
difficult and dangerous.

Precautionary/preparedness actions...

Beachgoers... swimmers... and surfers should heed all advice given
by ocean safety officials and exercise caution.



Wroe